createdAt,value
2023-05-10T00:00:58.040Z,501.00
2023-05-10T00:01:58.093Z,507.00
2023-05-10T00:02:58.134Z,503.00
2023-05-10T00:03:58.144Z,505.00
2023-05-10T00:04:58.116Z,503.00
2023-05-10T00:05:58.140Z,508.00
2023-05-10T00:06:58.130Z,506.00
2023-05-10T00:07:58.170Z,503.00
2023-05-10T00:08:58.185Z,508.00
2023-05-10T00:09:58.197Z,502.00
2023-05-10T00:10:58.240Z,504.00
2023-05-10T00:11:58.238Z,503.00
2023-05-10T00:12:58.333Z,506.00
2023-05-10T00:13:58.506Z,507.00
2023-05-10T00:14:58.309Z,506.00
2023-05-10T00:15:58.319Z,506.00
2023-05-10T00:16:58.480Z,506.00
2023-05-10T00:17:58.410Z,505.00
2023-05-10T00:18:58.399Z,504.00
2023-05-10T00:19:58.442Z,505.00
2023-05-10T00:20:58.454Z,505.00
2023-05-10T00:21:58.515Z,504.00
2023-05-10T00:22:58.475Z,503.00
2023-05-10T00:23:59.015Z,503.00
2023-05-10T00:24:58.568Z,510.00
2023-05-10T00:25:58.591Z,503.00
2023-05-10T00:26:58.573Z,502.00
2023-05-10T00:27:58.616Z,503.00
2023-05-10T00:28:58.665Z,505.00
2023-05-10T00:29:58.666Z,501.00
2023-05-10T00:30:58.714Z,504.00
2023-05-10T00:31:58.852Z,505.00
2023-05-10T00:32:58.837Z,507.00
2023-05-10T00:33:58.803Z,506.00
2023-05-10T00:34:58.779Z,506.00
2023-05-10T00:35:58.816Z,507.00
2023-05-10T00:36:58.819Z,503.00
2023-05-10T00:37:58.854Z,507.00
2023-05-10T00:38:59.059Z,506.00
2023-05-10T00:39:58.928Z,505.00
2023-05-10T00:40:58.956Z,505.00
2023-05-10T00:41:58.960Z,507.00
2023-05-10T00:42:58.987Z,504.00
2023-05-10T00:43:59.016Z,509.00
2023-05-10T00:44:59.037Z,505.00
2023-05-10T00:45:59.142Z,505.00
2023-05-10T00:46:59.117Z,505.00
2023-05-10T00:47:59.157Z,501.00
2023-05-10T00:48:59.521Z,504.00
2023-05-10T00:49:59.182Z,503.00
2023-05-10T00:50:59.231Z,500.00
2023-05-10T00:51:59.225Z,501.00
2023-05-10T00:52:59.284Z,504.00
2023-05-10T00:53:59.559Z,504.00
2023-05-10T00:54:59.321Z,502.00
2023-05-10T00:55:59.335Z,504.00
2023-05-10T00:56:59.357Z,506.00
2023-05-10T00:57:59.373Z,503.00
2023-05-10T00:58:59.513Z,500.00
2023-05-10T00:59:59.452Z,500.00
2023-05-10T01:00:59.508Z,503.00
2023-05-10T01:01:59.510Z,502.00
2023-05-10T01:02:59.607Z,504.00
2023-05-10T01:04:00.088Z,508.00
2023-05-10T01:04:59.608Z,503.00
2023-05-10T01:05:59.645Z,506.00
2023-05-10T01:06:59.669Z,505.00
2023-05-10T01:07:59.705Z,507.00
2023-05-10T01:09:00.038Z,504.00
2023-05-10T01:09:59.773Z,503.00
2023-05-10T01:10:59.818Z,504.00
2023-05-10T01:11:59.934Z,506.00
2023-05-10T01:12:59.885Z,504.00
2023-05-10T01:14:00.047Z,504.00
2023-05-10T01:14:59.940Z,503.00
2023-05-10T01:15:59.991Z,503.00
2023-05-10T01:17:00.034Z,504.00
2023-05-10T01:18:00.118Z,506.00
2023-05-10T01:19:00.589Z,505.00
2023-05-10T01:20:00.125Z,500.00
2023-05-10T01:21:00.147Z,504.00
2023-05-10T01:22:00.158Z,504.00
2023-05-10T01:23:00.204Z,503.00
2023-05-10T01:24:00.286Z,508.00
2023-05-10T01:25:00.288Z,500.00
2023-05-10T01:26:00.303Z,504.00
2023-05-10T01:27:00.321Z,504.00
2023-05-10T01:28:00.413Z,503.00
2023-05-10T01:29:00.568Z,504.00
2023-05-10T01:30:14.053Z,507.00
2023-05-10T01:31:01.502Z,508.00
2023-05-10T01:32:00.450Z,508.00
2023-05-10T01:33:00.453Z,508.00
2023-05-10T01:34:00.568Z,506.00
2023-05-10T01:35:00.385Z,506.00
2023-05-10T01:36:00.407Z,503.00
2023-05-10T01:37:00.405Z,505.00
2023-05-10T01:38:00.373Z,504.00
2023-05-10T01:39:00.589Z,503.00
2023-05-10T01:40:00.340Z,503.00
2023-05-10T01:41:00.404Z,507.00
2023-05-10T01:42:00.411Z,505.00
2023-05-10T01:43:00.353Z,503.00
2023-05-10T01:44:00.366Z,503.00
2023-05-10T01:45:00.349Z,505.00
2023-05-10T01:46:00.397Z,504.00
2023-05-10T01:47:00.546Z,505.00
2023-05-10T01:48:00.513Z,505.00
2023-05-10T01:49:00.596Z,500.00
2023-05-10T01:50:00.540Z,505.00
2023-05-10T01:51:00.581Z,504.00
2023-05-10T01:52:00.586Z,504.00
2023-05-10T01:53:00.614Z,507.00
2023-05-10T01:54:00.638Z,504.00
2023-05-10T01:55:00.722Z,504.00
2023-05-10T01:56:00.748Z,503.00
2023-05-10T01:57:00.787Z,507.00
2023-05-10T01:58:00.769Z,507.00
2023-05-10T01:59:00.872Z,503.00
2023-05-10T02:00:00.939Z,502.00
2023-05-10T02:01:00.976Z,505.00
2023-05-10T02:02:01.003Z,508.00
2023-05-10T02:03:01.036Z,502.00
2023-05-10T02:04:02.010Z,506.00
2023-05-10T02:05:01.058Z,510.00
2023-05-10T02:06:01.123Z,505.00
2023-05-10T02:07:01.190Z,510.00
2023-05-10T02:08:01.188Z,507.00
2023-05-10T02:09:01.227Z,508.00
2023-05-10T02:10:01.278Z,507.00
2023-05-10T02:11:01.288Z,507.00
2023-05-10T02:12:01.357Z,509.00
2023-05-10T02:13:01.422Z,504.00
2023-05-10T02:14:01.570Z,507.00
2023-05-10T02:15:01.437Z,507.00
2023-05-10T02:16:01.509Z,505.00
2023-05-10T02:17:01.584Z,508.00
2023-05-10T02:18:01.621Z,503.00
2023-05-10T02:19:02.089Z,506.00
2023-05-10T02:20:01.621Z,509.00
2023-05-10T02:21:01.686Z,505.00
2023-05-10T02:22:01.700Z,504.00
2023-05-10T02:23:01.737Z,505.00
2023-05-10T02:24:01.758Z,505.00
2023-05-10T02:25:01.838Z,506.00
2023-05-10T02:26:01.856Z,505.00
2023-05-10T02:27:01.942Z,504.00
2023-05-10T02:28:01.950Z,506.00
2023-05-10T02:29:02.006Z,506.00
2023-05-10T02:30:02.016Z,506.00
2023-05-10T02:31:02.087Z,501.00
2023-05-10T02:32:02.156Z,505.00
2023-05-10T02:33:02.180Z,504.00
2023-05-10T02:34:02.192Z,506.00
2023-05-10T02:35:02.259Z,503.00
2023-05-10T02:36:02.332Z,505.00
2023-05-10T02:37:02.326Z,505.00
2023-05-10T02:38:02.407Z,505.00
2023-05-10T02:39:02.559Z,506.00
2023-05-10T02:40:02.449Z,503.00
2023-05-10T02:41:02.622Z,504.00
2023-05-10T02:42:02.565Z,508.00
2023-05-10T02:43:02.578Z,507.00
2023-05-10T02:44:02.615Z,505.00
2023-05-10T02:45:02.670Z,504.00
2023-05-10T02:46:02.730Z,505.00
2023-05-10T02:47:02.723Z,504.00
2023-05-10T02:48:02.776Z,505.00
2023-05-10T02:49:02.848Z,505.00
2023-05-10T02:50:02.880Z,503.00
2023-05-10T02:51:02.923Z,500.00
2023-05-10T02:52:02.990Z,505.00
2023-05-10T02:53:03.039Z,505.00
2023-05-10T02:54:03.066Z,500.00
2023-05-10T02:55:03.059Z,505.00
2023-05-10T02:56:03.133Z,503.00
2023-05-10T02:57:03.174Z,500.00
2023-05-10T02:58:03.227Z,503.00
2023-05-10T02:59:03.265Z,504.00
2023-05-10T03:00:03.333Z,503.00
2023-05-10T03:01:03.347Z,508.00
2023-05-10T03:02:03.366Z,502.00
2023-05-10T03:03:03.485Z,506.00
2023-05-10T03:04:03.561Z,504.00
2023-05-10T03:05:03.519Z,505.00
2023-05-10T03:06:03.543Z,505.00
2023-05-10T03:07:03.585Z,504.00
2023-05-10T03:08:03.628Z,503.00
2023-05-10T03:09:03.643Z,502.00
2023-05-10T03:10:03.688Z,507.00
2023-05-10T03:11:03.751Z,506.00
2023-05-10T03:12:03.818Z,506.00
2023-05-10T03:13:03.889Z,500.00
2023-05-10T03:14:03.917Z,504.00
2023-05-10T03:15:03.941Z,507.00
2023-05-10T03:16:04.016Z,508.00
2023-05-10T03:17:04.040Z,504.00
2023-05-10T03:18:04.098Z,505.00
2023-05-10T03:19:04.148Z,508.00
2023-05-10T03:20:04.163Z,505.00
2023-05-10T03:21:04.187Z,504.00
2023-05-10T03:22:04.216Z,505.00
2023-05-10T03:23:04.282Z,503.00
2023-05-10T03:24:04.312Z,502.00
2023-05-10T03:25:04.373Z,506.00
2023-05-10T03:26:04.382Z,508.00
2023-05-10T03:27:04.457Z,503.00
2023-05-10T03:28:04.499Z,503.00
2023-05-10T03:29:04.576Z,506.00
2023-05-10T03:30:04.598Z,505.00
2023-05-10T03:31:04.672Z,507.00
2023-05-10T03:32:04.737Z,503.00
2023-05-10T03:33:04.788Z,503.00
2023-05-10T03:34:04.820Z,506.00
2023-05-10T03:35:04.879Z,505.00
2023-05-10T03:36:04.932Z,503.00
2023-05-10T03:37:04.978Z,502.00
2023-05-10T03:38:04.974Z,503.00
2023-05-10T03:39:05.096Z,506.00
2023-05-10T03:40:05.086Z,505.00
2023-05-10T03:41:05.157Z,508.00
2023-05-10T03:42:05.252Z,501.00
2023-05-10T03:43:05.255Z,503.00
2023-05-10T03:44:05.599Z,506.00
2023-05-10T03:45:05.356Z,502.00
2023-05-10T03:46:05.389Z,506.00
2023-05-10T03:47:05.524Z,506.00
2023-05-10T03:48:05.544Z,502.00
2023-05-10T03:49:05.519Z,510.00
2023-05-10T03:50:05.630Z,501.00
2023-05-10T03:51:05.669Z,508.00
2023-05-10T03:52:05.708Z,505.00
2023-05-10T03:53:05.770Z,508.00
2023-05-10T03:54:06.090Z,505.00
2023-05-10T03:55:05.846Z,505.00
2023-05-10T03:56:05.902Z,505.00
2023-05-10T03:57:05.904Z,507.00
2023-05-10T03:58:05.981Z,507.00
2023-05-10T03:59:06.019Z,506.00
2023-05-10T04:00:06.075Z,506.00
2023-05-10T04:01:06.112Z,510.00
2023-05-10T04:02:06.221Z,507.00
2023-05-10T04:03:06.290Z,504.00
2023-05-10T04:04:06.343Z,507.00
2023-05-10T04:05:06.313Z,505.00
2023-05-10T04:06:06.497Z,506.00
2023-05-10T04:07:06.439Z,505.00
2023-05-10T04:08:06.525Z,504.00
2023-05-10T04:09:06.595Z,507.00
2023-05-10T04:10:06.602Z,505.00
2023-05-10T04:11:06.660Z,503.00
2023-05-10T04:12:07.965Z,503.00
2023-05-10T04:13:06.896Z,507.00
2023-05-10T04:14:06.811Z,505.00
2023-05-10T04:15:06.875Z,503.00
2023-05-10T04:16:06.898Z,502.00
2023-05-10T04:17:07.006Z,501.00
2023-05-10T04:18:08.817Z,500.00
2023-05-10T04:19:07.120Z,502.00
2023-05-10T04:20:07.158Z,503.00
2023-05-10T04:21:07.187Z,500.00
2023-05-10T04:22:07.261Z,503.00
2023-05-10T04:23:07.338Z,504.00
2023-05-10T04:24:07.631Z,503.00
2023-05-10T04:25:07.399Z,505.00
2023-05-10T04:26:07.459Z,502.00
2023-05-10T04:27:07.496Z,501.00
2023-05-10T04:28:07.584Z,505.00
2023-05-10T04:29:07.623Z,505.00
2023-05-10T04:30:07.721Z,506.00
2023-05-10T04:31:07.766Z,510.00
2023-05-10T04:32:07.775Z,506.00
2023-05-10T04:33:07.957Z,503.00
2023-05-10T04:34:07.932Z,502.00
2023-05-10T04:35:07.962Z,502.00
2023-05-10T04:36:08.024Z,502.00
2023-05-10T04:37:08.075Z,500.00
2023-05-10T04:38:08.113Z,505.00
2023-05-10T04:39:08.193Z,504.00
2023-05-10T04:40:08.237Z,507.00
2023-05-10T04:41:08.292Z,505.00
2023-05-10T04:42:08.367Z,506.00
2023-05-10T04:43:08.408Z,504.00
2023-05-10T04:44:08.482Z,504.00
2023-05-10T04:45:08.515Z,503.00
2023-05-10T04:46:08.733Z,503.00
2023-05-10T04:47:11.141Z,508.00
2023-05-10T04:48:08.614Z,513.00
2023-05-10T04:49:09.304Z,508.00
2023-05-10T04:50:08.621Z,504.00
2023-05-10T04:51:08.601Z,505.00
2023-05-10T04:52:08.600Z,504.00
2023-05-10T04:53:08.616Z,506.00
2023-05-10T04:54:08.621Z,514.00
2023-05-10T04:55:08.577Z,513.00
2023-05-10T04:56:08.596Z,508.00
2023-05-10T04:57:08.561Z,507.00
2023-05-10T04:58:08.595Z,506.00
2023-05-10T04:59:08.555Z,500.00
2023-05-10T05:00:08.543Z,504.00
2023-05-10T05:01:08.561Z,505.00
2023-05-10T05:02:08.561Z,509.00
2023-05-10T05:03:08.588Z,508.00
2023-05-10T05:04:08.652Z,512.00
2023-05-10T05:05:08.507Z,507.00
2023-05-10T05:06:08.498Z,503.00
2023-05-10T05:07:08.494Z,502.00
2023-05-10T05:08:08.498Z,503.00
2023-05-10T05:09:08.519Z,510.00
2023-05-10T05:10:08.478Z,516.00
2023-05-10T05:11:08.492Z,519.00
2023-05-10T05:12:08.529Z,519.00
2023-05-10T05:13:08.587Z,500.00
2023-05-10T05:14:08.644Z,503.00
2023-05-10T05:15:09.756Z,500.00
2023-05-10T05:16:08.766Z,507.00
2023-05-10T05:17:08.817Z,515.00
2023-05-10T05:18:08.912Z,507.00
2023-05-10T05:19:08.955Z,516.00
2023-05-10T05:20:09.038Z,524.00
2023-05-10T05:21:09.094Z,521.00
2023-05-10T05:22:09.134Z,529.00
2023-05-10T05:23:09.274Z,523.00
2023-05-10T05:24:09.260Z,531.00
2023-05-10T05:25:09.350Z,520.00
2023-05-10T05:26:09.398Z,536.00
2023-05-10T05:27:09.424Z,545.00
2023-05-10T05:28:09.524Z,534.00
2023-05-10T05:29:09.625Z,531.00
2023-05-10T05:30:09.617Z,531.00
2023-05-10T05:31:09.714Z,528.00
2023-05-10T05:32:09.854Z,515.00
2023-05-10T05:33:09.841Z,516.00
2023-05-10T05:34:09.855Z,517.00
2023-05-10T05:35:09.906Z,511.00
2023-05-10T05:36:09.936Z,506.00
2023-05-10T05:37:09.970Z,505.00
2023-05-10T05:38:10.055Z,509.00
2023-05-10T05:39:10.055Z,500.00
2023-05-10T05:40:10.076Z,502.00
2023-05-10T05:41:10.380Z,500.00
2023-05-10T05:42:10.347Z,500.00
2023-05-10T05:43:10.266Z,499.00
2023-05-10T05:44:10.206Z,508.00
2023-05-10T05:45:10.194Z,505.00
2023-05-10T05:46:10.241Z,500.00
2023-05-10T05:47:10.213Z,500.00
2023-05-10T05:48:10.269Z,502.00
2023-05-10T05:49:10.642Z,503.00
2023-05-10T05:50:10.205Z,504.00
2023-05-10T05:51:10.218Z,505.00
2023-05-10T05:52:10.224Z,506.00
2023-05-10T05:53:10.234Z,506.00
2023-05-10T05:54:10.227Z,502.00
2023-05-10T05:55:10.645Z,505.00
2023-05-10T05:56:10.244Z,508.00
2023-05-10T05:57:10.223Z,512.00
2023-05-10T05:58:10.230Z,509.00
2023-05-10T05:59:10.223Z,529.00
2023-05-10T06:00:10.630Z,546.00
2023-05-10T06:01:10.283Z,570.00
2023-05-10T06:02:10.378Z,588.00
2023-05-10T06:03:10.481Z,599.00
2023-05-10T06:04:10.530Z,608.00
2023-05-10T06:05:10.549Z,616.00
2023-05-10T06:06:10.588Z,626.00
2023-05-10T06:07:10.622Z,636.00
2023-05-10T06:08:10.704Z,646.00
2023-05-10T06:09:10.759Z,652.00
2023-05-10T06:10:10.830Z,656.00
2023-05-10T06:11:10.869Z,664.00
2023-05-10T06:12:10.896Z,662.00
2023-05-10T06:13:11.047Z,679.00
2023-05-10T06:14:11.027Z,672.00
2023-05-10T06:15:11.061Z,687.00
2023-05-10T06:16:11.123Z,703.00
2023-05-10T06:17:11.152Z,717.00
2023-05-10T06:18:11.177Z,693.00
2023-05-10T06:19:11.195Z,702.00
2023-05-10T06:20:11.286Z,708.00
2023-05-10T06:21:11.306Z,740.00
2023-05-10T06:22:11.281Z,713.00
2023-05-10T06:23:11.344Z,760.00
2023-05-10T06:24:11.353Z,766.00
2023-05-10T06:25:11.378Z,782.00
2023-05-10T06:26:11.404Z,749.00
2023-05-10T06:27:11.450Z,756.00
2023-05-10T06:28:11.456Z,778.00
2023-05-10T06:29:11.501Z,777.00
2023-05-10T06:30:13.396Z,761.00
2023-05-10T06:31:11.614Z,764.00
2023-05-10T06:32:11.568Z,789.00
2023-05-10T06:33:11.683Z,766.00
2023-05-10T06:34:11.599Z,783.00
2023-05-10T06:35:11.646Z,765.00
2023-05-10T06:36:11.687Z,716.00
2023-05-10T06:37:11.693Z,656.00
2023-05-10T06:38:12.626Z,759.00
2023-05-10T06:39:11.669Z,770.00
2023-05-10T06:40:11.711Z,750.00
2023-05-10T06:41:11.784Z,828.00
2023-05-10T06:42:11.758Z,814.00
2023-05-10T06:43:11.792Z,805.00
2023-05-10T06:44:11.806Z,837.00
2023-05-10T06:45:11.821Z,825.00
2023-05-10T06:46:11.840Z,778.00
2023-05-10T06:47:11.821Z,745.00
2023-05-10T06:48:11.860Z,681.00
2023-05-10T06:49:11.861Z,711.00
2023-05-10T06:50:11.850Z,740.00
2023-05-10T06:51:11.879Z,748.00
2023-05-10T06:52:11.907Z,641.00
2023-05-10T06:53:11.872Z,637.00
2023-05-10T06:54:11.983Z,645.00
2023-05-10T06:55:11.925Z,678.00
2023-05-10T06:56:11.936Z,652.00
2023-05-10T06:57:23.219Z,696.00
2023-05-10T06:58:12.895Z,699.00
2023-05-10T06:59:11.974Z,715.00
2023-05-10T07:00:11.933Z,742.00
2023-05-10T07:01:11.999Z,785.00
2023-05-10T07:02:11.952Z,848.00
2023-05-10T07:03:11.997Z,852.00
2023-05-10T07:04:11.846Z,851.00
2023-05-10T07:05:12.159Z,838.00
2023-05-10T07:06:21.769Z,854.00
2023-05-10T07:07:12.830Z,855.00
2023-05-10T07:08:11.869Z,853.00
2023-05-10T07:09:11.851Z,845.00
2023-05-10T07:10:11.819Z,828.00
2023-05-10T07:11:11.798Z,841.00
2023-05-10T07:12:14.158Z,839.00
2023-05-10T07:13:11.969Z,841.00
2023-05-10T07:14:11.801Z,832.00
2023-05-10T07:15:11.794Z,828.00
2023-05-10T07:16:11.776Z,827.00
2023-05-10T07:17:11.793Z,823.00
2023-05-10T07:18:11.833Z,816.00
2023-05-10T07:19:11.746Z,812.00
2023-05-10T07:20:12.206Z,808.00
2023-05-10T07:21:11.831Z,808.00
2023-05-10T07:22:11.723Z,809.00
2023-05-10T07:23:11.770Z,800.00
2023-05-10T07:24:11.769Z,795.00
2023-05-10T07:25:11.728Z,795.00
2023-05-10T07:26:11.752Z,789.00
2023-05-10T07:27:11.698Z,809.00
2023-05-10T07:28:11.701Z,836.00
2023-05-10T07:29:11.673Z,839.00
2023-05-10T07:30:11.704Z,783.00
2023-05-10T07:31:11.686Z,776.00
2023-05-10T07:32:11.723Z,797.00
2023-05-10T07:33:11.741Z,801.00
2023-05-10T07:34:11.715Z,799.00
2023-05-10T07:35:11.637Z,805.00
2023-05-10T07:36:11.676Z,819.00
2023-05-10T07:37:11.679Z,826.00
2023-05-10T07:38:11.630Z,836.00
2023-05-10T07:39:14.367Z,756.00
2023-05-10T07:40:11.598Z,757.00
2023-05-10T07:41:11.584Z,764.00
2023-05-10T07:42:11.752Z,770.00
2023-05-10T07:43:11.594Z,772.00
2023-05-10T07:44:11.564Z,641.00
2023-05-10T07:45:11.627Z,643.00
2023-05-10T07:46:11.582Z,641.00
2023-05-10T07:47:11.583Z,664.00
2023-05-10T07:48:11.562Z,697.00
2023-05-10T07:49:11.542Z,650.00
2023-05-10T07:50:11.698Z,685.00
2023-05-10T07:51:11.541Z,675.00
2023-05-10T07:52:11.530Z,650.00
2023-05-10T07:53:11.534Z,712.00
2023-05-10T07:54:11.490Z,687.00
2023-05-10T07:55:11.669Z,720.00
2023-05-10T07:56:11.588Z,768.00
2023-05-10T07:57:11.491Z,780.00
2023-05-10T07:58:11.703Z,807.00
2023-05-10T07:59:12.949Z,858.00
2023-05-10T08:00:11.477Z,829.00
2023-05-10T08:01:11.490Z,867.00
2023-05-10T08:02:11.498Z,873.00
2023-05-10T08:03:11.640Z,837.00
2023-05-10T08:04:11.475Z,880.00
2023-05-10T08:05:11.440Z,859.00
2023-05-10T08:06:11.472Z,865.00
2023-05-10T08:07:11.562Z,874.00
2023-05-10T08:08:11.587Z,822.00
2023-05-10T08:09:11.689Z,808.00
2023-05-10T08:10:12.232Z,847.00
2023-05-10T08:11:11.800Z,836.00
2023-05-10T08:12:11.869Z,791.00
2023-05-10T08:13:11.918Z,794.00
2023-05-10T08:14:11.973Z,777.00
2023-05-10T08:15:12.219Z,736.00
2023-05-10T08:16:12.138Z,682.00
2023-05-10T08:17:12.167Z,662.00
2023-05-10T08:18:12.290Z,686.00
2023-05-10T08:19:12.281Z,679.00
2023-05-10T08:20:12.330Z,660.00
2023-05-10T08:21:12.365Z,659.00
2023-05-10T08:22:12.418Z,679.00
2023-05-10T08:23:12.479Z,769.00
2023-05-10T08:24:12.594Z,809.00
2023-05-10T08:25:12.607Z,841.00
2023-05-10T08:26:12.683Z,819.00
2023-05-10T08:27:12.724Z,823.00
2023-05-10T08:28:12.756Z,823.00
2023-05-10T08:29:12.866Z,783.00
2023-05-10T08:30:13.205Z,773.00
2023-05-10T08:31:13.126Z,820.00
2023-05-10T08:32:13.042Z,807.00
2023-05-10T08:33:13.075Z,799.00
2023-05-10T08:34:13.154Z,796.00
2023-05-10T08:35:13.180Z,798.00
2023-05-10T08:36:13.214Z,807.00
2023-05-10T08:37:13.296Z,812.00
2023-05-10T08:38:13.378Z,702.00
2023-05-10T08:39:22.806Z,737.00
2023-05-10T08:40:14.669Z,739.00
2023-05-10T08:41:13.354Z,745.00
2023-05-10T08:42:13.356Z,693.00
2023-05-10T08:43:13.350Z,646.00
2023-05-10T08:44:13.377Z,661.00
2023-05-10T08:45:13.753Z,656.00
2023-05-10T08:46:13.404Z,658.00
2023-05-10T08:47:13.416Z,660.00
2023-05-10T08:48:13.398Z,692.00
2023-05-10T08:49:13.399Z,715.00
2023-05-10T08:50:13.707Z,732.00
2023-05-10T08:51:13.582Z,731.00
2023-05-10T08:52:13.624Z,732.00
2023-05-10T08:53:13.703Z,713.00
2023-05-10T08:54:13.720Z,711.00
2023-05-10T08:55:15.916Z,700.00
2023-05-10T08:56:14.711Z,685.00
2023-05-10T08:57:13.824Z,679.00
2023-05-10T08:58:13.796Z,677.00
2023-05-10T08:59:13.775Z,663.00
2023-05-10T09:00:14.205Z,660.00
2023-05-10T09:01:13.848Z,657.00
2023-05-10T09:02:13.802Z,655.00
2023-05-10T09:03:13.815Z,653.00
2023-05-10T09:04:13.824Z,651.00
2023-05-10T09:05:14.270Z,647.00
2023-05-10T09:06:13.739Z,646.00
2023-05-10T09:07:13.773Z,643.00
2023-05-10T09:08:13.752Z,640.00
2023-05-10T09:09:13.756Z,635.00
2023-05-10T09:10:13.772Z,634.00
2023-05-10T09:11:13.835Z,635.00
2023-05-10T09:12:13.798Z,631.00
2023-05-10T09:13:13.828Z,627.00
2023-05-10T09:14:13.847Z,620.00
2023-05-10T09:15:13.807Z,617.00
2023-05-10T09:16:21.785Z,617.00
2023-05-10T09:17:14.866Z,617.00
2023-05-10T09:18:13.968Z,614.00
2023-05-10T09:19:13.884Z,610.00
2023-05-10T09:20:14.185Z,615.00
2023-05-10T09:21:13.782Z,617.00
2023-05-10T09:22:13.783Z,608.00
2023-05-10T09:23:13.796Z,605.00
2023-05-10T09:24:13.762Z,600.00
2023-05-10T09:25:14.505Z,603.00
2023-05-10T09:26:13.773Z,604.00
2023-05-10T09:27:13.777Z,603.00
2023-05-10T09:28:13.771Z,598.00
2023-05-10T09:29:15.362Z,595.00
2023-05-10T09:30:14.217Z,603.00
2023-05-10T09:31:13.781Z,603.00
2023-05-10T09:32:14.021Z,598.00
2023-05-10T09:33:13.731Z,596.00
2023-05-10T09:34:13.728Z,596.00
2023-05-10T09:35:13.749Z,591.00
2023-05-10T09:36:13.714Z,594.00
2023-05-10T09:37:13.691Z,592.00
2023-05-10T09:38:13.701Z,588.00
2023-05-10T09:39:13.679Z,587.00
2023-05-10T09:40:13.747Z,587.00
2023-05-10T09:41:13.678Z,588.00
2023-05-10T09:42:13.666Z,588.00
2023-05-10T09:43:13.663Z,584.00
2023-05-10T09:44:13.744Z,585.00
2023-05-10T09:45:13.670Z,581.00
2023-05-10T09:46:13.797Z,582.00
2023-05-10T09:47:13.640Z,581.00
2023-05-10T09:48:13.694Z,585.00
2023-05-10T09:49:13.596Z,584.00
2023-05-10T09:50:13.605Z,590.00
2023-05-10T09:51:13.597Z,592.00
2023-05-10T09:52:13.588Z,593.00
2023-05-10T09:53:13.593Z,591.00
2023-05-10T09:54:13.610Z,590.00
2023-05-10T09:55:13.646Z,587.00
2023-05-10T09:56:13.550Z,574.00
2023-05-10T09:57:13.567Z,583.00
2023-05-10T09:58:14.219Z,583.00
2023-05-10T09:59:13.539Z,585.00
2023-05-10T10:00:13.552Z,583.00
2023-05-10T10:01:13.746Z,584.00
2023-05-10T10:02:13.539Z,582.00
2023-05-10T10:03:13.502Z,579.00
2023-05-10T10:04:13.604Z,576.00
2023-05-10T10:05:13.649Z,577.00
2023-05-10T10:06:22.873Z,578.00
2023-05-10T10:07:14.482Z,578.00
2023-05-10T10:08:13.469Z,572.00
2023-05-10T10:09:13.469Z,578.00
2023-05-10T10:10:13.516Z,581.00
2023-05-10T10:11:13.727Z,568.00
2023-05-10T10:12:13.468Z,573.00
2023-05-10T10:13:13.519Z,573.00
2023-05-10T10:14:13.572Z,574.00
2023-05-10T10:15:15.962Z,579.00
2023-05-10T10:16:13.658Z,569.00
2023-05-10T10:17:13.571Z,564.00
2023-05-10T10:18:13.545Z,564.00
2023-05-10T10:19:13.585Z,565.00
2023-05-10T10:20:13.660Z,566.00
2023-05-10T10:21:13.694Z,569.00
2023-05-10T10:22:13.524Z,571.00
2023-05-10T10:23:15.152Z,555.00
2023-05-10T10:24:13.516Z,555.00
2023-05-10T10:25:13.516Z,556.00
2023-05-10T10:26:13.741Z,556.00
2023-05-10T10:27:13.503Z,559.00
2023-05-10T10:28:13.518Z,568.00
2023-05-10T10:29:13.507Z,570.00
2023-05-10T10:30:13.496Z,562.00
2023-05-10T10:31:13.505Z,562.00
2023-05-10T10:32:13.438Z,567.00
2023-05-10T10:33:27.260Z,556.00
2023-05-10T10:34:14.482Z,556.00
2023-05-10T10:35:13.428Z,558.00
2023-05-10T10:36:13.711Z,563.00
2023-05-10T10:37:13.435Z,550.00
2023-05-10T10:38:13.444Z,524.00
2023-05-10T10:39:13.418Z,520.00
2023-05-10T10:40:13.434Z,530.00
2023-05-10T10:41:13.439Z,521.00
2023-05-10T10:42:13.444Z,505.00
2023-05-10T10:43:13.434Z,505.00
2023-05-10T10:44:13.459Z,511.00
2023-05-10T10:45:13.567Z,534.00
2023-05-10T10:46:13.682Z,536.00
2023-05-10T10:47:13.653Z,543.00
2023-05-10T10:48:13.696Z,571.00
2023-05-10T10:49:13.758Z,567.00
2023-05-10T10:50:13.902Z,554.00
2023-05-10T10:51:13.887Z,564.00
2023-05-10T10:52:13.922Z,575.00
2023-05-10T10:53:14.039Z,592.00
2023-05-10T10:54:13.999Z,808.00
2023-05-10T10:55:14.064Z,730.00
2023-05-10T10:56:14.117Z,663.00
2023-05-10T10:57:14.167Z,657.00
2023-05-10T10:58:14.186Z,663.00
2023-05-10T10:59:14.242Z,665.00
2023-05-10T11:00:14.280Z,659.00
2023-05-10T11:01:14.764Z,650.00
2023-05-10T11:02:14.413Z,653.00
2023-05-10T11:03:14.587Z,656.00
2023-05-10T11:04:14.497Z,662.00
2023-05-10T11:05:14.654Z,635.00
2023-05-10T11:06:14.553Z,638.00
2023-05-10T11:07:14.634Z,644.00
2023-05-10T11:08:14.683Z,647.00
2023-05-10T11:09:14.727Z,647.00
2023-05-10T11:10:14.826Z,658.00
2023-05-10T11:11:15.278Z,665.00
2023-05-10T11:12:14.876Z,677.00
2023-05-10T11:13:14.916Z,642.00
2023-05-10T11:14:14.952Z,643.00
2023-05-10T11:15:15.104Z,633.00
2023-05-10T11:16:15.292Z,647.00
2023-05-10T11:17:15.345Z,657.00
2023-05-10T11:18:15.124Z,664.00
2023-05-10T11:19:15.216Z,681.00
2023-05-10T11:20:15.523Z,684.00
2023-05-10T11:21:15.759Z,673.00
2023-05-10T11:22:15.268Z,634.00
2023-05-10T11:23:15.311Z,637.00
2023-05-10T11:24:15.467Z,610.00
2023-05-10T11:25:15.376Z,630.00
2023-05-10T11:26:15.410Z,654.00
2023-05-10T11:27:15.441Z,658.00
2023-05-10T11:28:15.508Z,659.00
2023-05-10T11:29:15.515Z,670.00
2023-05-10T11:30:15.893Z,675.00
2023-05-10T11:31:15.827Z,679.00
2023-05-10T11:32:15.658Z,680.00
2023-05-10T11:33:15.655Z,742.00
2023-05-10T11:34:15.664Z,676.00
2023-05-10T11:35:15.707Z,665.00
2023-05-10T11:36:16.244Z,634.00
2023-05-10T11:37:15.856Z,594.00
2023-05-10T11:38:15.964Z,628.00
2023-05-10T11:39:15.818Z,643.00
2023-05-10T11:40:16.091Z,655.00
2023-05-10T11:41:16.263Z,660.00
2023-05-10T11:42:15.879Z,664.00
2023-05-10T11:43:15.937Z,662.00
2023-05-10T11:44:16.006Z,659.00
2023-05-10T11:45:15.998Z,658.00
2023-05-10T11:46:16.187Z,649.00
2023-05-10T11:47:16.069Z,647.00
2023-05-10T11:48:16.132Z,642.00
2023-05-10T11:49:16.130Z,641.00
2023-05-10T11:50:16.382Z,633.00
2023-05-10T11:51:16.287Z,638.00
2023-05-10T11:52:17.269Z,635.00
2023-05-10T11:53:16.324Z,632.00
2023-05-10T11:54:16.391Z,633.00
2023-05-10T11:55:16.481Z,628.00
2023-05-10T11:56:16.530Z,623.00
2023-05-10T11:57:16.579Z,618.00
2023-05-10T11:58:16.644Z,618.00
2023-05-10T11:59:16.710Z,612.00
2023-05-10T12:00:16.993Z,610.00
2023-05-10T12:01:16.805Z,615.00
2023-05-10T12:02:16.935Z,611.00
2023-05-10T12:03:17.008Z,606.00
2023-05-10T12:04:17.454Z,606.00
2023-05-10T12:05:17.023Z,598.00
2023-05-10T12:06:17.078Z,603.00
2023-05-10T12:07:17.159Z,607.00
2023-05-10T12:08:17.276Z,604.00
2023-05-10T12:09:19.230Z,607.00
2023-05-10T12:10:18.601Z,607.00
2023-05-10T12:11:17.756Z,604.00
2023-05-10T12:12:17.318Z,598.00
2023-05-10T12:13:17.278Z,606.00
2023-05-10T12:14:17.281Z,604.00
2023-05-10T12:15:17.218Z,602.00
2023-05-10T12:16:17.276Z,600.00
2023-05-10T12:17:17.234Z,603.00
2023-05-10T12:18:17.419Z,604.00
2023-05-10T12:19:17.361Z,592.00
2023-05-10T12:20:17.780Z,592.00
2023-05-10T12:21:17.765Z,597.00
2023-05-10T12:22:17.474Z,592.00
2023-05-10T12:23:17.479Z,589.00
2023-05-10T12:24:17.512Z,587.00
2023-05-10T12:25:17.587Z,591.00
2023-05-10T12:26:17.765Z,598.00
2023-05-10T12:27:17.603Z,596.00
2023-05-10T12:28:17.641Z,591.00
2023-05-10T12:29:17.734Z,596.00